Time;durP1;ratioP1;P1;durP2;ratioP2;P2;SDS_P1;SDS_P2;PMS_P1;PMS_P2;Temp;Humidity;BMP_temperature;BMP_pressure;BME280_temperature;BME280_humidity;BME280_pressure;Samples;Min_cycle;Max_cycle;Signal;HPM_P1;HPM_P2
2022/01/23 00:00:40;;;;;;;11.40;6.53;;;5.80;99.90;;;;;;5084357;28;20051;-73
2022/01/23 00:03:11;;;;;;;9.32;6.30;;;5.80;99.90;;;;;;5056305;28;20115;-73
2022/01/23 00:05:41;;;;;;;9.55;6.40;;;5.80;99.90;;;;;;5074983;28;20044;-73
2022/01/23 00:08:09;;;;;;;12.02;6.20;;;5.80;99.90;;;;;;5057515;28;20048;-73
2022/01/23 00:10:35;;;;;;;11.32;7.32;;;5.80;99.90;;;;;;5057551;28;20166;-73
2022/01/23 00:13:10;;;;;;;16.10;8.75;;;5.80;99.90;;;;;;5051871;28;20468;-73
2022/01/23 00:18:21;;;;;;;11.35;6.55;;;5.80;99.90;;;;;;5058468;28;20052;-73
2022/01/23 00:20:48;;;;;;;12.70;8.93;;;5.80;99.90;;;;;;5069505;28;20048;-73
2022/01/23 00:23:25;;;;;;;24.45;16.85;;;5.80;99.90;;;;;;5073422;28;20036;-73
2022/01/23 00:31:22;;;;;;;14.40;5.75;;;5.90;99.90;;;;;;5038658;28;20085;-73
2022/01/23 00:33:47;;;;;;;9.73;5.85;;;5.80;99.90;;;;;;5040133;28;20128;-73
2022/01/23 00:36:13;;;;;;;8.35;6.10;;;5.80;99.90;;;;;;5066272;22;20171;-76
2022/01/23 00:38:39;;;;;;;11.60;5.40;;;5.80;99.90;;;;;;5034902;28;20615;-76
2022/01/23 00:41:05;;;;;;;10.52;4.82;;;5.80;99.90;;;;;;5046336;28;20784;-76
2022/01/23 00:43:34;;;;;;;11.60;5.47;;;5.80;99.90;;;;;;5039442;28;20124;-76
2022/01/23 00:49:23;;;;;;;8.75;5.80;;;5.90;99.90;;;;;;5042319;28;20041;-76
2022/01/23 00:51:39;;;;;;;6.70;5.05;;;5.80;99.90;;;;;;5048878;28;20052;-76
2022/01/23 00:54:09;;;;;;;9.82;5.53;;;5.80;99.90;;;;;;5051368;28;20079;-76
2022/01/23 00:56:35;;;;;;;8.68;5.70;;;5.80;99.90;;;;;;5052235;28;20044;-76
2022/01/23 00:59:02;;;;;;;7.45;4.85;;;5.80;99.90;;;;;;5051931;28;20041;-76
2022/01/23 01:01:28;;;;;;;11.10;5.05;;;5.80;99.90;;;;;;5050424;28;20116;-76
2022/01/23 01:03:53;;;;;;;7.57;4.78;;;5.80;99.90;;;;;;5038089;28;20499;-76
2022/01/23 01:06:19;;;;;;;10.50;4.65;;;5.80;99.90;;;;;;5044645;28;20045;-76
2022/01/23 01:08:47;;;;;;;12.85;5.13;;;5.80;99.90;;;;;;5030074;28;20063;-76
2022/01/23 01:11:46;;;;;;;9.07;5.20;;;5.80;99.90;;;;;;5043743;28;20037;-76
2022/01/23 01:16:40;;;;;;;8.75;5.22;;;5.80;99.90;;;;;;5039219;28;20372;-76
2022/01/23 01:31:27;;;;;;;5.63;4.25;;;5.80;99.90;;;;;;4991061;28;20411;-76
2022/01/23 01:35:54;;;;;;;9.98;4.72;;;5.80;99.90;;;;;;5051644;28;20084;-76
2022/01/23 01:38:20;;;;;;;10.15;4.85;;;5.80;99.90;;;;;;5037836;28;20049;-76
2022/01/23 01:40:46;;;;;;;9.27;4.50;;;5.80;99.90;;;;;;5040202;28;20048;-76
2022/01/23 01:43:11;;;;;;;8.35;4.82;;;5.80;99.90;;;;;;5046839;28;20033;-76
2022/01/23 01:45:40;;;;;;;11.90;5.65;;;5.90;99.90;;;;;;5063727;28;20471;-76
2022/01/23 01:48:06;;;;;;;11.15;5.28;;;5.90;99.90;;;;;;5051350;28;20482;-77
2022/01/23 01:50:33;;;;;;;14.27;5.75;;;5.90;99.90;;;;;;5049580;28;20079;-76
2022/01/23 01:53:00;;;;;;;12.48;5.65;;;5.80;99.90;;;;;;5044189;28;20315;-76
2022/01/23 01:55:29;;;;;;;9.88;5.50;;;5.90;99.90;;;;;;5050975;28;20036;-76
2022/01/23 01:58:02;;;;;;;8.48;5.13;;;5.80;99.90;;;;;;5035058;28;20037;-76
2022/01/23 02:10:57;;;;;;;12.10;6.43;;;5.80;99.90;;;;;;5050458;28;20041;-77
2022/01/23 02:14:13;;;;;;;11.82;6.10;;;5.90;99.90;;;;;;5050639;28;20481;-76
2022/01/23 02:56:49;;;;;;;9.75;6.00;;;5.80;99.90;;;;;;5049724;28;20053;-76
2022/01/23 02:59:31;;;;;;;11.95;5.75;;;5.80;99.90;;;;;;5046116;28;20386;-77
2022/01/23 03:02:14;;;;;;;10.20;5.82;;;5.80;99.90;;;;;;5049117;28;20040;-77
2022/01/23 03:04:49;;;;;;;11.40;6.28;;;5.80;99.90;;;;;;5050326;28;20044;-77
2022/01/23 03:10:06;;;;;;;11.77;5.50;;;5.80;99.90;;;;;;5039167;28;20128;-77
2022/01/23 03:15:05;;;;;;;9.57;5.85;;;5.80;99.90;;;;;;5045400;28;20060;-77
2022/01/23 03:28:26;;;;;;;9.43;5.30;;;5.90;99.90;;;;;;5047743;28;20712;-76
2022/01/23 03:31:08;;;;;;;10.43;6.05;;;5.90;99.90;;;;;;5032923;28;20036;-76
2022/01/23 03:33:36;;;;;;;13.20;6.97;;;5.90;99.90;;;;;;5049596;28;20049;-76
2022/01/23 03:36:03;;;;;;;10.48;5.68;;;5.90;99.90;;;;;;5048746;28;20101;-76
2022/01/23 03:38:29;;;;;;;11.48;5.75;;;5.90;99.90;;;;;;5046313;28;20171;-77
2022/01/23 03:40:55;;;;;;;11.55;5.90;;;5.90;99.90;;;;;;5022836;28;20079;-76
2022/01/23 03:43:27;;;;;;;10.23;5.30;;;5.90;99.90;;;;;;5047772;28;20064;-76
2022/01/23 03:46:21;;;;;;;12.55;5.78;;;5.90;99.90;;;;;;5049438;28;20076;-76
2022/01/23 03:51:12;;;;;;;10.35;5.45;;;5.90;99.90;;;;;;5049917;28;20723;-77
2022/01/23 03:53:39;;;;;;;9.88;5.55;;;5.90;99.90;;;;;;5048665;28;20033;-77
2022/01/23 03:56:05;;;;;;;12.88;5.70;;;5.90;99.90;;;;;;5032904;28;20049;-76
2022/01/23 03:58:32;;;;;;;11.35;6.32;;;5.90;99.90;;;;;;5047357;28;20041;-77
2022/01/23 04:00:58;;;;;;;8.73;5.90;;;5.90;99.90;;;;;;5040648;28;20036;-76
2022/01/23 04:03:24;;;;;;;10.90;6.43;;;5.90;99.90;;;;;;5014804;28;20710;-77
2022/01/23 04:05:52;;;;;;;8.10;5.82;;;5.90;99.90;;;;;;5046385;28;20048;-76
2022/01/23 04:08:20;;;;;;;10.73;6.80;;;5.80;99.90;;;;;;5050342;28;20056;-77
2022/01/23 04:10:46;;;;;;;12.15;6.47;;;5.80;99.90;;;;;;5046017;28;20086;-77
2022/01/23 04:13:24;;;;;;;8.95;5.97;;;5.80;99.90;;;;;;5046323;28;20037;-76
2022/01/23 04:16:22;;;;;;;13.18;6.15;;;5.80;99.90;;;;;;5048993;28;20116;-77
2022/01/23 04:46:22;;;;;;;13.98;5.75;;;5.80;99.90;;;;;;5052177;28;20052;-76
2022/01/23 05:03:03;;;;;;;10.02;6.10;;;5.80;99.90;;;;;;5013442;28;20578;-76
2022/01/23 05:05:13;;;;;;;13.95;6.40;;;5.80;99.90;;;;;;5048134;28;20048;-77
2022/01/23 05:07:44;;;;;;;13.02;6.50;;;5.80;99.90;;;;;;5052529;28;20037;-77
2022/01/23 05:10:10;;;;;;;11.57;6.90;;;5.80;99.90;;;;;;5034931;28;20059;-76
2022/01/23 05:12:35;;;;;;;9.85;6.05;;;5.80;99.90;;;;;;5034545;28;20033;-77
2022/01/23 05:15:01;;;;;;;10.07;6.05;;;5.80;99.90;;;;;;5051863;28;20044;-76
2022/01/23 05:17:27;;;;;;;8.55;6.07;;;5.90;99.90;;;;;;5051996;28;20045;-76
2022/01/23 05:19:53;;;;;;;11.32;5.80;;;5.80;99.90;;;;;;5050348;28;20040;-77
2022/01/23 05:24:57;;;;;;;11.35;6.53;;;5.80;99.90;;;;;;5050191;28;20421;-76
2022/01/23 05:27:23;;;;;;;14.05;6.75;;;5.80;99.90;;;;;;5050809;28;20041;-76
2022/01/23 05:29:50;;;;;;;10.90;6.68;;;5.80;99.90;;;;;;5050096;28;20080;-77
2022/01/23 05:32:16;;;;;;;11.65;6.95;;;5.80;99.90;;;;;;5051238;28;20110;-77
2022/01/23 05:34:43;;;;;;;13.10;6.45;;;5.90;99.90;;;;;;5030550;28;20057;-77
2022/01/23 05:37:09;;;;;;;9.25;6.13;;;5.80;99.90;;;;;;5051264;28;20138;-76
2022/01/23 05:39:35;;;;;;;9.43;5.70;;;5.90;99.90;;;;;;5050067;28;20064;-77
2022/01/23 05:42:09;;;;;;;8.25;6.38;;;5.80;99.90;;;;;;5047593;28;20123;-76
2022/01/23 05:44:40;;;;;;;10.45;6.60;;;5.80;99.90;;;;;;5051192;28;20111;-76
2022/01/23 05:47:09;;;;;;;10.70;7.07;;;5.80;99.90;;;;;;5049485;28;20031;-76
2022/01/23 05:49:35;;;;;;;10.48;6.57;;;5.80;99.90;;;;;;5051532;28;20504;-76
2022/01/23 05:52:01;;;;;;;10.48;6.80;;;5.80;99.90;;;;;;5051185;28;20047;-76
2022/01/23 05:54:27;;;;;;;10.05;6.18;;;5.90;99.90;;;;;;5048789;28;20044;-77
2022/01/23 05:56:52;;;;;;;12.73;6.85;;;5.90;99.90;;;;;;5034426;28;20049;-77
2022/01/23 05:59:20;;;;;;;9.00;6.13;;;5.80;99.90;;;;;;5049175;28;20048;-77
2022/01/23 06:01:46;;;;;;;10.75;6.85;;;5.80;99.90;;;;;;5015101;28;20056;-76
2022/01/23 06:04:12;;;;;;;11.68;6.95;;;5.90;99.90;;;;;;5046092;28;20044;-76
2022/01/23 06:06:38;;;;;;;12.43;7.10;;;5.80;99.90;;;;;;5050468;28;20056;-77
2022/01/23 06:09:05;;;;;;;10.45;6.95;;;5.80;99.90;;;;;;5034005;28;20076;-77
2022/01/23 06:11:30;;;;;;;15.02;7.20;;;5.80;99.90;;;;;;5037194;28;20085;-76
2022/01/23 06:13:56;;;;;;;9.95;6.53;;;5.80;99.90;;;;;;5034743;28;20659;-76
2022/01/23 06:16:21;;;;;;;10.73;6.55;;;5.80;99.90;;;;;;5033059;28;20043;-77
2022/01/23 06:18:47;;;;;;;12.35;7.25;;;5.80;99.90;;;;;;5050788;28;20494;-77
2022/01/23 06:21:18;;;;;;;9.00;5.88;;;5.80;99.90;;;;;;5039970;28;20052;-76
2022/01/23 06:23:45;;;;;;;11.48;6.70;;;5.80;99.90;;;;;;5032032;28;20684;-77
2022/01/23 06:26:10;;;;;;;9.85;6.40;;;5.80;99.90;;;;;;5048316;28;20528;-76
2022/01/23 06:29:01;;;;;;;8.68;6.32;;;5.80;99.90;;;;;;5047686;28;20044;-76
2022/01/23 06:31:27;;;;;;;10.27;6.55;;;5.80;99.90;;;;;;5041869;28;20673;-76
2022/01/23 06:33:52;;;;;;;10.57;6.45;;;5.80;99.90;;;;;;5051061;28;20053;-76
2022/01/23 06:36:18;;;;;;;12.98;6.80;;;5.80;99.90;;;;;;5050518;28;20065;-77
2022/01/23 06:38:43;;;;;;;9.38;6.20;;;5.80;99.90;;;;;;5049326;28;20513;-76
2022/01/23 06:41:09;;;;;;;10.50;6.50;;;5.80;99.90;;;;;;5031025;28;20049;-76
2022/01/23 06:43:35;;;;;;;10.55;6.13;;;5.80;99.90;;;;;;5031007;28;20045;-77
2022/01/23 06:46:00;;;;;;;14.77;7.30;;;5.80;99.90;;;;;;5031904;28;20129;-76
2022/01/23 06:48:26;;;;;;;9.07;6.40;;;5.80;99.90;;;;;;5030797;28;20076;-77
2022/01/23 06:50:51;;;;;;;12.57;6.85;;;5.80;99.90;;;;;;5030787;28;20061;-77
2022/01/23 06:53:17;;;;;;;8.40;6.50;;;5.80;99.90;;;;;;5050371;28;20059;-77
2022/01/23 06:55:43;;;;;;;8.63;6.38;;;5.80;99.90;;;;;;5048389;28;20526;-77
2022/01/23 06:58:09;;;;;;;10.68;6.43;;;5.80;99.90;;;;;;5046173;28;20037;-76
2022/01/23 07:00:35;;;;;;;10.43;6.97;;;5.80;99.90;;;;;;5043775;28;20376;-77
2022/01/23 07:03:01;;;;;;;12.15;6.70;;;5.80;99.90;;;;;;5049823;28;20056;-77
2022/01/23 07:05:27;;;;;;;12.90;7.22;;;5.70;99.90;;;;;;5050299;28;20037;-77
2022/01/23 07:07:52;;;;;;;10.13;7.50;;;5.80;99.90;;;;;;5049970;28;20036;-77
2022/01/23 07:10:20;;;;;;;10.48;7.03;;;5.70;99.90;;;;;;5047466;28;20116;-77
2022/01/23 07:12:45;;;;;;;11.80;6.68;;;5.70;99.90;;;;;;5031705;28;20045;-77
2022/01/23 07:15:11;;;;;;;10.05;6.55;;;5.70;99.90;;;;;;5048740;28;20036;-77
2022/01/23 07:17:39;;;;;;;10.88;6.57;;;5.80;99.90;;;;;;5049698;28;20044;-76
2022/01/23 07:20:05;;;;;;;10.20;6.38;;;5.70;99.90;;;;;;5046498;28;20028;-77
2022/01/23 07:22:31;;;;;;;9.45;6.30;;;5.80;99.90;;;;;;5048856;28;20055;-77
2022/01/23 07:25:00;;;;;;;9.07;6.15;;;5.80;99.90;;;;;;5049858;28;20123;-76
2022/01/23 07:27:28;;;;;;;10.63;6.32;;;5.80;99.90;;;;;;5027012;28;20148;-76
2022/01/23 07:29:54;;;;;;;8.32;5.93;;;5.80;99.90;;;;;;5048718;28;20093;-77
2022/01/23 07:32:20;;;;;;;9.48;6.57;;;5.80;99.90;;;;;;5050844;28;20498;-77
2022/01/23 07:34:45;;;;;;;8.48;6.38;;;5.80;99.90;;;;;;5049669;28;20068;-76
2022/01/23 07:37:12;;;;;;;7.22;6.25;;;5.70;99.90;;;;;;5049499;28;20040;-77
2022/01/23 07:39:39;;;;;;;8.27;5.90;;;5.70;99.90;;;;;;5041094;28;20041;-76
2022/01/23 07:42:05;;;;;;;8.82;5.97;;;5.80;99.90;;;;;;5046054;28;20505;-77
2022/01/23 07:44:31;;;;;;;6.57;5.65;;;5.70;99.90;;;;;;5015875;28;20025;-76
2022/01/23 07:46:56;;;;;;;9.30;6.38;;;5.70;99.90;;;;;;5031692;28;20063;-77
2022/01/23 07:49:23;;;;;;;7.13;6.35;;;5.70;99.90;;;;;;5044399;28;20128;-77
2022/01/23 07:51:49;;;;;;;9.88;7.35;;;5.70;99.90;;;;;;5049599;28;20431;-77
2022/01/23 07:54:15;;;;;;;9.50;8.05;;;5.70;99.90;;;;;;5019805;28;20048;-77
2022/01/23 07:56:42;;;;;;;8.02;5.68;;;5.70;99.90;;;;;;5046645;28;20410;-77
2022/01/23 07:59:09;;;;;;;8.18;4.85;;;5.80;99.90;;;;;;5048174;28;20036;-76
2022/01/23 08:01:38;;;;;;;7.28;4.72;;;5.70;99.90;;;;;;5040413;28;20041;-77
2022/01/23 08:04:07;;;;;;;6.15;4.95;;;5.80;99.90;;;;;;5045054;28;20510;-77
2022/01/23 08:06:40;;;;;;;5.60;4.63;;;5.80;99.90;;;;;;5045637;28;20063;-76
2022/01/23 08:09:06;;;;;;;7.47;4.55;;;5.80;99.90;;;;;;5030064;28;20036;-77
2022/01/23 08:11:31;;;;;;;6.15;4.38;;;5.90;99.90;;;;;;5060559;28;20076;-76
2022/01/23 08:13:57;;;;;;;5.45;4.03;;;5.90;99.90;;;;;;5040424;28;20469;-77
2022/01/23 08:16:22;;;;;;;5.43;4.28;;;5.90;99.90;;;;;;5035589;28;20041;-77
2022/01/23 08:18:48;;;;;;;5.47;4.40;;;5.90;99.90;;;;;;5052575;28;20047;-78
2022/01/23 08:21:14;;;;;;;5.78;4.68;;;5.90;99.90;;;;;;5044151;28;20044;-78
2022/01/23 08:23:40;;;;;;;6.50;3.97;;;5.90;99.90;;;;;;5036271;28;20103;-77
2022/01/23 08:26:06;;;;;;;3.92;3.53;;;6.00;99.90;;;;;;5043341;28;20041;-77
2022/01/23 08:28:32;;;;;;;4.57;3.13;;;6.00;99.90;;;;;;5052447;28;20079;-77
2022/01/23 08:30:57;;;;;;;3.60;2.80;;;6.00;99.90;;;;;;5051686;28;20713;-77
2022/01/23 08:33:24;;;;;;;3.95;2.35;;;6.10;99.90;;;;;;5037100;28;20103;-77
2022/01/23 08:35:52;;;;;;;2.92;1.80;;;6.10;99.90;;;;;;5007076;28;20080;-77
2022/01/23 08:38:18;;;;;;;2.00;1.38;;;6.10;99.90;;;;;;5030769;28;20040;-77
2022/01/23 08:43:10;;;;;;;1.55;1.10;;;6.20;99.90;;;;;;5046037;28;20132;-78
2022/01/23 08:45:36;;;;;;;1.95;1.00;;;6.30;99.90;;;;;;5052475;28;20536;-77
2022/01/23 08:48:01;;;;;;;1.00;0.82;;;6.40;99.90;;;;;;5026683;28;20037;-77
2022/01/23 08:50:27;;;;;;;2.25;1.02;;;6.40;99.90;;;;;;5056551;28;20812;-77
2022/01/23 08:52:52;;;;;;;2.17;1.20;;;6.50;99.90;;;;;;5038248;28;20044;-77
2022/01/23 08:55:19;;;;;;;2.42;1.17;;;6.50;99.90;;;;;;5035760;28;20082;-77
2022/01/23 08:57:45;;;;;;;1.60;1.42;;;6.50;99.90;;;;;;5050041;28;20113;-77
2022/01/23 09:00:11;;;;;;;1.73;1.50;;;6.50;99.90;;;;;;5028014;28;20880;-77
2022/01/23 09:02:36;;;;;;;3.65;2.15;;;6.50;99.90;;;;;;5042081;28;20037;-77
2022/01/23 09:05:02;;;;;;;4.80;2.28;;;6.50;99.90;;;;;;5043481;28;20059;-77
2022/01/23 09:07:28;;;;;;;3.15;2.80;;;6.50;99.90;;;;;;5052051;28;20049;-77
2022/01/23 09:10:00;;;;;;;3.47;3.17;;;6.60;99.90;;;;;;5051834;28;20040;-77
2022/01/23 09:15:04;;;;;;;5.55;4.38;;;6.60;99.90;;;;;;5044251;28;20053;-76
2022/01/23 09:17:30;;;;;;;5.65;4.38;;;6.60;99.90;;;;;;5030810;28;20041;-76
2022/01/23 09:19:56;;;;;;;7.18;5.05;;;6.60;99.90;;;;;;5045529;28;20060;-76
2022/01/23 09:22:21;;;;;;;5.75;4.40;;;6.60;99.90;;;;;;5033752;28;20075;-77
2022/01/23 09:24:47;;;;;;;8.35;5.88;;;6.70;99.90;;;;;;5050254;28;20048;-77
2022/01/23 09:27:22;;;;;;;8.05;6.65;;;6.70;99.90;;;;;;5052436;28;20032;-76
2022/01/23 09:29:51;;;;;;;9.55;7.32;;;6.70;99.90;;;;;;5050463;28;20467;-76
2022/01/23 09:32:20;;;;;;;9.00;6.70;;;6.70;99.90;;;;;;5051283;28;20044;-76
2022/01/23 09:34:46;;;;;;;8.65;6.38;;;6.70;99.90;;;;;;5050412;28;20513;-76
2022/01/23 09:37:14;;;;;;;6.68;5.97;;;6.80;99.90;;;;;;5050364;28;20108;-76
2022/01/23 09:39:41;;;;;;;6.93;6.22;;;6.80;99.90;;;;;;5046195;28;20360;-76
2022/01/23 09:42:14;;;;;;;7.53;5.75;;;6.80;99.90;;;;;;5027525;28;20045;-76
2022/01/23 09:44:47;;;;;;;11.00;7.18;;;6.80;99.90;;;;;;5046589;28;20084;-76
2022/01/23 09:47:15;;;;;;;8.50;6.93;;;6.80;99.90;;;;;;5043876;28;20041;-76
2022/01/23 09:49:43;;;;;;;10.80;7.88;;;6.90;99.90;;;;;;5044109;28;20052;-76
2022/01/23 09:52:11;;;;;;;11.35;7.75;;;6.90;99.90;;;;;;5045633;28;20071;-76
2022/01/23 09:54:39;;;;;;;7.65;6.70;;;6.90;99.90;;;;;;5041806;28;20037;-76
2022/01/23 09:57:07;;;;;;;11.93;7.45;;;6.90;99.90;;;;;;5038873;28;20532;-76
2022/01/23 09:59:33;;;;;;;10.02;8.52;;;6.90;99.90;;;;;;5026216;28;20037;-76
2022/01/23 10:02:01;;;;;;;9.60;8.27;;;7.00;99.90;;;;;;5020454;28;20048;-76
2022/01/23 10:04:27;;;;;;;10.07;8.40;;;7.00;99.90;;;;;;5043210;28;20078;-75
2022/01/23 10:06:53;;;;;;;7.78;6.97;;;7.10;99.90;;;;;;5037893;28;20048;-76
2022/01/23 10:09:22;;;;;;;8.77;7.45;;;7.10;99.90;;;;;;5056494;28;20041;-76
2022/01/23 10:11:48;;;;;;;9.88;7.10;;;7.10;99.90;;;;;;5041279;28;20059;-76
2022/01/23 10:14:17;;;;;;;7.32;6.53;;;7.20;99.90;;;;;;5036448;28;20120;-76
2022/01/23 10:16:44;;;;;;;7.03;5.85;;;7.20;99.90;;;;;;5040010;28;20055;-75
2022/01/23 10:19:10;;;;;;;7.68;6.25;;;7.20;99.90;;;;;;5037751;28;20040;-76
2022/01/23 10:21:38;;;;;;;6.47;5.30;;;7.20;99.90;;;;;;5040274;28;20490;-76
2022/01/23 10:24:05;;;;;;;7.22;5.20;;;7.30;99.90;;;;;;5041070;28;20167;-76
2022/01/23 10:26:49;;;;;;;5.63;4.93;;;7.30;99.90;;;;;;5036155;28;20056;-75
2022/01/23 10:29:31;;;;;;;6.72;5.57;;;7.40;99.90;;;;;;5053954;28;20074;-76
2022/01/23 10:32:21;;;;;;;5.30;4.72;;;7.40;99.90;;;;;;5038276;28;20049;-75
2022/01/23 10:34:46;;;;;;;5.00;4.50;;;7.40;99.90;;;;;;5037204;28;20140;-76
2022/01/23 10:37:24;;;;;;;5.15;4.47;;;7.50;99.90;;;;;;5035747;28;20169;-76
2022/01/23 10:39:50;;;;;;;5.53;4.88;;;7.50;99.90;;;;;;5020119;28;20041;-76
2022/01/23 10:47:53;;;;;;;5.30;3.35;;;7.60;99.90;;;;;;5042363;28;20172;-76
2022/01/23 10:50:22;;;;;;;4.25;3.00;;;7.60;99.90;;;;;;5038506;28;20082;-76
2022/01/23 10:52:48;;;;;;;3.40;3.10;;;7.60;99.90;;;;;;5023176;28;20450;-76
2022/01/23 10:55:19;;;;;;;2.70;2.47;;;7.60;99.90;;;;;;5037619;28;20045;-76
2022/01/23 10:57:47;;;;;;;2.20;2.00;;;7.60;99.90;;;;;;5039727;28;20041;-76
2022/01/23 11:00:26;;;;;;;2.53;2.05;;;7.60;99.90;;;;;;5035863;28;20539;-77
2022/01/23 11:02:54;;;;;;;2.40;1.88;;;7.70;99.90;;;;;;5023248;28;20048;-76
2022/01/23 11:05:21;;;;;;;2.33;1.98;;;7.70;99.90;;;;;;5034026;28;20037;-76
2022/01/23 11:07:49;;;;;;;1.77;1.30;;;7.80;99.90;;;;;;5045851;28;20095;-76
2022/01/23 11:10:20;;;;;;;1.65;1.55;;;7.80;99.90;;;;;;5046592;28;20393;-76
2022/01/23 11:18:15;;;;;;;1.42;0.80;;;7.80;99.90;;;;;;5042719;28;20045;-76
2022/01/23 11:20:44;;;;;;;0.43;0.40;;;7.90;99.90;;;;;;5033520;28;20047;-76
2022/01/23 11:23:32;;;;;;;0.57;0.40;;;7.90;99.90;;;;;;5046940;28;20045;-76
2022/01/23 11:25:57;;;;;;;0.50;0.50;;;7.90;99.90;;;;;;5044599;28;20406;-76
2022/01/23 11:28:36;;;;;;;0.70;0.60;;;7.90;99.90;;;;;;5039721;28;20040;-76
2022/01/23 11:31:04;;;;;;;2.05;0.50;;;7.80;99.90;;;;;;5025019;28;20033;-76
2022/01/23 11:33:30;;;;;;;1.00;0.90;;;7.80;99.90;;;;;;5035988;28;20053;-76
2022/01/23 11:35:55;;;;;;;1.02;0.60;;;7.70;99.90;;;;;;5041245;28;20067;-76
2022/01/23 11:38:23;;;;;;;0.40;0.40;;;7.70;99.90;;;;;;5035664;28;20049;-76
2022/01/23 11:54:42;;;;;;;1.77;1.67;;;8.00;99.90;;;;;;5044188;28;20057;-76
2022/01/23 11:57:43;;;;;;;1.08;0.98;;;8.00;99.90;;;;;;5021660;28;20056;-76
2022/01/23 12:00:18;;;;;;;1.60;0.45;;;8.00;99.90;;;;;;5043328;28;20141;-76
2022/01/23 12:03:04;;;;;;;1.00;0.50;;;8.00;99.90;;;;;;5029845;28;20059;-76
2022/01/23 12:05:30;;;;;;;1.02;0.70;;;8.10;99.90;;;;;;5031353;28;20045;-76
2022/01/23 12:08:28;;;;;;;1.52;0.82;;;8.10;99.90;;;;;;5013471;28;20433;-76
2022/01/23 12:16:21;;;;;;;0.57;0.57;;;8.10;99.90;;;;;;5040628;28;20378;-76
2022/01/23 12:19:02;;;;;;;0.98;0.63;;;8.10;99.90;;;;;;5034162;28;20099;-76
2022/01/23 12:21:31;;;;;;;0.90;0.73;;;8.00;99.90;;;;;;5023033;28;20064;-76
2022/01/23 12:24:05;;;;;;;1.25;0.40;;;8.00;99.90;;;;;;5023403;28;20037;-76
2022/01/23 12:26:31;;;;;;;1.38;0.57;;;8.00;99.90;;;;;;5026860;28;20029;-76
2022/01/23 12:29:12;;;;;;;0.90;0.60;;;8.00;99.90;;;;;;5045891;28;20055;-76
2022/01/23 12:31:38;;;;;;;1.10;0.70;;;8.10;99.90;;;;;;5062640;28;20095;-76
2022/01/23 12:34:04;;;;;;;1.85;0.80;;;8.00;99.90;;;;;;5029493;28;20041;-76
2022/01/23 12:36:32;;;;;;;1.27;0.68;;;8.00;99.90;;;;;;5048480;28;20540;-76
2022/01/23 12:39:18;;;;;;;1.95;1.00;;;8.10;99.90;;;;;;5007950;28;20407;-76
2022/01/23 12:41:47;;;;;;;1.77;0.93;;;8.10;99.90;;;;;;5022374;28;20125;-76
2022/01/23 12:44:28;;;;;;;1.83;1.20;;;8.10;99.90;;;;;;5044445;28;20039;-76
2022/01/23 12:47:02;;;;;;;1.05;0.95;;;8.20;99.90;;;;;;5065578;28;20132;-75
2022/01/23 12:52:19;;;;;;;1.60;1.50;;;8.10;99.90;;;;;;5028749;28;20131;-66
2022/01/23 12:54:52;;;;;;;2.58;1.67;;;8.10;99.90;;;;;;5034615;28;20071;-66
2022/01/23 12:57:30;;;;;;;1.60;1.38;;;8.00;99.90;;;;;;5033035;28;20124;-67
2022/01/23 12:59:59;;;;;;;2.22;2.03;;;8.10;99.90;;;;;;5031749;28;20041;-67
2022/01/23 13:02:29;;;;;;;3.20;2.40;;;8.00;99.90;;;;;;5031308;28;20030;-66
2022/01/23 13:04:56;;;;;;;2.60;1.65;;;8.00;99.90;;;;;;5026721;28;20035;-67
2022/01/23 13:07:40;;;;;;;5.70;4.32;;;8.10;99.90;;;;;;5026888;28;20061;-67
2022/01/23 13:13:08;;;;;;;4.30;3.30;;;8.00;99.90;;;;;;5013519;28;20057;-66
2022/01/23 13:35:12;;;;;;;5.78;5.18;;;8.10;99.90;;;;;;5013669;28;20072;-67
2022/01/23 13:37:41;;;;;;;6.85;4.75;;;8.10;99.90;;;;;;5012252;28;20068;-67
2022/01/23 13:40:20;;;;;;;4.35;3.00;;;8.10;99.90;;;;;;5024614;28;20601;-67
2022/01/23 13:59:16;;;;;;;1.95;1.50;;;8.00;99.90;;;;;;5002949;28;21284;-66
2022/01/23 14:04:28;;;;;;;2.10;1.98;;;8.00;99.90;;;;;;5027599;28;20414;-66
2022/01/23 14:06:54;;;;;;;3.03;1.40;;;7.90;99.90;;;;;;5029677;28;20049;-67
2022/01/23 14:09:20;;;;;;;2.25;2.05;;;7.90;99.90;;;;;;5024344;28;20029;-66
2022/01/23 14:11:48;;;;;;;2.75;2.28;;;7.80;99.90;;;;;;5044507;28;20053;-67
2022/01/23 14:14:21;;;;;;;2.58;2.15;;;7.80;99.90;;;;;;5042480;28;20478;-67
2022/01/23 14:16:49;;;;;;;3.13;2.83;;;7.80;99.90;;;;;;5030732;28;20482;-67
2022/01/23 14:19:27;;;;;;;1.52;1.35;;;7.80;99.90;;;;;;5025754;28;20048;-66
2022/01/23 14:21:56;;;;;;;1.35;1.10;;;7.80;99.90;;;;;;5028460;28;20037;-66
2022/01/23 14:24:48;;;;;;;2.65;1.70;;;7.70;99.90;;;;;;5025944;28;20076;-67
2022/01/23 14:27:17;;;;;;;1.52;1.42;;;7.70;99.90;;;;;;5024498;28;20057;-67
2022/01/23 14:29:54;;;;;;;1.40;1.30;;;7.70;99.90;;;;;;5030791;28;20073;-67
2022/01/23 14:32:29;;;;;;;2.42;1.40;;;7.60;99.90;;;;;;5014129;28;20453;-66
2022/01/23 14:35:11;;;;;;;1.67;1.30;;;7.60;99.90;;;;;;5013282;28;20037;-66
2022/01/23 14:37:37;;;;;;;3.60;1.93;;;7.60;99.90;;;;;;5027318;28;20076;-67
2022/01/23 14:40:25;;;;;;;12.90;11.15;;;7.60;99.90;;;;;;5012879;28;20795;-67
2022/01/23 14:43:10;;;;;;;14.15;11.32;;;7.50;99.90;;;;;;5031636;28;20111;-67
2022/01/23 14:45:39;;;;;;;14.50;12.23;;;7.50;99.90;;;;;;5012372;28;20033;-67
2022/01/23 14:48:06;;;;;;;10.98;9.20;;;7.50;99.90;;;;;;5013218;28;20505;-67
2022/01/23 14:50:36;;;;;;;5.85;4.18;;;7.50;99.90;;;;;;5030586;28;20053;-67
2022/01/23 14:53:17;;;;;;;5.30;3.72;;;7.40;99.90;;;;;;5029796;28;20077;-67
2022/01/23 14:55:49;;;;;;;6.05;4.53;;;7.40;99.90;;;;;;5021565;28;20034;-67
2022/01/23 14:58:19;;;;;;;7.18;5.35;;;7.40;99.90;;;;;;5009101;28;20041;-67
2022/01/23 15:00:45;;;;;;;4.38;2.90;;;7.40;99.90;;;;;;5030575;28;20046;-67
2022/01/23 15:03:10;;;;;;;1.40;1.20;;;7.40;99.90;;;;;;5004264;28;20048;-67
2022/01/23 15:05:38;;;;;;;3.35;1.30;;;7.40;99.90;;;;;;5008736;28;20037;-67
2022/01/23 15:08:07;;;;;;;2.75;1.55;;;7.30;99.90;;;;;;5002281;28;20138;-67
2022/01/23 15:10:33;;;;;;;2.47;1.75;;;7.30;99.90;;;;;;5029910;28;20045;-67
2022/01/23 15:12:59;;;;;;;3.25;2.30;;;7.30;99.90;;;;;;5029307;28;20112;-67
2022/01/23 15:15:25;;;;;;;2.47;2.20;;;7.30;99.90;;;;;;5011257;28;20124;-67
2022/01/23 15:17:51;;;;;;;3.53;1.88;;;7.30;99.90;;;;;;5007991;28;20033;-67
2022/01/23 15:20:17;;;;;;;2.53;2.00;;;7.20;99.90;;;;;;5035732;28;20041;-66
2022/01/23 15:22:43;;;;;;;4.03;2.35;;;7.20;99.90;;;;;;5007834;28;20037;-67
2022/01/23 15:25:11;;;;;;;2.92;2.20;;;7.20;99.90;;;;;;5006380;28;20448;-67
2022/01/23 15:27:37;;;;;;;2.60;2.40;;;7.10;99.90;;;;;;5029010;28;20045;-67
2022/01/23 15:30:08;;;;;;;3.53;2.10;;;7.10;99.90;;;;;;5012074;28;20549;-67
2022/01/23 15:32:35;;;;;;;2.77;1.77;;;7.10;99.90;;;;;;5027133;28;20415;-66
2022/01/23 15:35:01;;;;;;;2.08;1.50;;;7.10;99.90;;;;;;5028153;28;20087;-67
2022/01/23 15:37:27;;;;;;;2.92;1.80;;;7.10;99.90;;;;;;5030257;28;20041;-67
2022/01/23 15:39:53;;;;;;;2.80;1.40;;;7.00;99.90;;;;;;5026757;28;20050;-67
2022/01/23 15:42:18;;;;;;;2.00;1.55;;;7.00;99.90;;;;;;5011958;28;20045;-66
2022/01/23 15:44:44;;;;;;;1.65;1.55;;;7.00;99.90;;;;;;5010402;28;20164;-67
2022/01/23 15:47:09;;;;;;;3.10;2.60;;;7.00;99.90;;;;;;5012291;28;20037;-67
2022/01/23 15:49:36;;;;;;;5.15;2.42;;;7.00;99.90;;;;;;5030043;28;20046;-67
2022/01/23 15:52:03;;;;;;;2.50;1.90;;;7.00;99.90;;;;;;5029657;28;20053;-67
2022/01/23 15:54:29;;;;;;;2.25;1.80;;;6.90;99.90;;;;;;5010341;28;20049;-67
2022/01/23 15:56:55;;;;;;;3.35;2.60;;;6.90;99.90;;;;;;5010870;28;20128;-67
2022/01/23 15:59:21;;;;;;;2.38;2.10;;;6.90;99.90;;;;;;5012749;28;20120;-66
2022/01/23 16:01:49;;;;;;;5.03;2.50;;;6.90;99.90;;;;;;5011346;28;20120;-66
2022/01/23 16:04:16;;;;;;;5.10;3.03;;;6.90;99.90;;;;;;5010518;28;20051;-67
2022/01/23 16:06:42;;;;;;;3.85;3.22;;;6.80;99.90;;;;;;5029380;28;20044;-67
2022/01/23 16:09:08;;;;;;;7.45;5.72;;;6.90;99.90;;;;;;5027093;28;20033;-66
2022/01/23 16:11:34;;;;;;;11.23;10.10;;;6.80;99.90;;;;;;5028392;28;20481;-67
2022/01/23 16:14:00;;;;;;;8.00;7.30;;;6.80;99.90;;;;;;5024957;28;20096;-66
2022/01/23 16:16:26;;;;;;;8.32;5.72;;;6.80;99.90;;;;;;5029457;28;20036;-67
2022/01/23 16:18:52;;;;;;;7.60;5.43;;;6.80;99.90;;;;;;5013587;28;20057;-67
2022/01/23 16:21:18;;;;;;;7.45;6.75;;;6.80;99.90;;;;;;5026693;28;20287;-66
2022/01/23 16:23:44;;;;;;;4.80;4.38;;;6.80;99.90;;;;;;5013014;28;20048;-67
2022/01/23 16:26:11;;;;;;;4.40;3.92;;;6.80;99.90;;;;;;5030710;28;20029;-66
2022/01/23 16:28:36;;;;;;;3.45;3.15;;;6.70;99.90;;;;;;5031974;28;20529;-67
2022/01/23 16:31:02;;;;;;;4.72;3.25;;;6.70;99.90;;;;;;5030308;28;20041;-66
2022/01/23 16:33:29;;;;;;;3.08;2.38;;;6.70;99.90;;;;;;5031423;28;20030;-67
2022/01/23 16:35:56;;;;;;;4.38;3.10;;;6.70;99.90;;;;;;5030638;28;20048;-67
2022/01/23 16:38:23;;;;;;;4.25;2.42;;;6.70;99.90;;;;;;5028407;28;20025;-67
2022/01/23 16:40:54;;;;;;;2.60;2.38;;;6.70;99.90;;;;;;5024320;28;20402;-66
2022/01/23 16:43:24;;;;;;;3.42;2.33;;;6.70;99.90;;;;;;5015035;28;20037;-67